Terminal Aerodrome Forecast
Issued by NWS

Home | Current Version | Previous Version | Text Only | Print | Product List | Glossary On
Versions: 1 2 3 4 5 6 7 8 9 10 11 12 13 14 15 16
000
FTUS45 KFGZ 231700
TAFGCN
TAF
KGCN 231720Z 2318/2418 24010G17KT P6SM SCT050
     FM240130 24007KT P6SM FEW050
     FM240300 VRB04KT P6SM FEW050=

USA.gov is the U.S. government's official web portal to all federal, state and local government web resources and services.